Lanark, West Virginia
Current Conditions -  °F | °C
As of 5:51 AM on Friday 31 Oct 2014 (Local Time) from KBKW Reporting Station
Clear Clear  
Wind Chill: 30°   Ceiling: Unl
Heat Index: 36°   Visibility: 10mi
Dew Point: 30°   Wind: 7mph
Humidity: 79%   Direction: 160°SSE
Pressure: 29.95"   Gusts: NA
Location:  37.83°N, 81.15°W
Report Text: KBKW 310951Z AUTO 16006KT 10SM CLR 02/M01 A2995 RMK AO2 SLP154 T00221011 TSNO
Loading
Personal Weather Stations






























Interactive Weather Map New forecast layout! Learn more

10-Day Weather Forecast

Advertisements
Track Severe Weather on mobile